Time;durP1;ratioP1;P1;durP2;ratioP2;P2;SDS_P1;SDS_P2;PMS_P1;PMS_P2;Temp;Humidity;BMP_temperature;BMP_pressure;BME280_temperature;BME280_humidity;BME280_pressure;Samples;Min_cycle;Max_cycle;Signal;HPM_P1;HPM_P2
2023/09/14 00:00:04;;;;;;;;;;;23.40;52.10;;;;;;5076263;28;19959;-56
2023/09/14 00:02:29;;;;;;;;;;;23.40;52.10;;;;;;5076146;28;20372;-56
2023/09/14 00:04:55;;;;;;;;;;;23.40;52.10;;;;;;5076349;28;19915;-56
2023/09/14 00:07:20;;;;;;;;;;;23.40;52.00;;;;;;5076122;28;20022;-56
2023/09/14 00:09:45;;;;;;;;;;;23.40;52.10;;;;;;5076300;28;19908;-56
2023/09/14 00:12:11;;;;;;;;;;;23.40;52.00;;;;;;5075958;28;20003;-56
2023/09/14 00:14:36;;;;;;;;;;;23.30;52.00;;;;;;5076004;28;19912;-56
2023/09/14 00:17:02;;;;;;;;;;;23.30;51.90;;;;;;5074659;28;20003;-56
2023/09/14 00:19:27;;;;;;;;;;;23.30;51.90;;;;;;5075930;28;19908;-56
2023/09/14 00:21:53;;;;;;;;;;;23.30;51.90;;;;;;5075777;28;20038;-56
2023/09/14 00:24:18;;;;;;;;;;;23.30;52.00;;;;;;5075872;28;19920;-56
2023/09/14 00:26:44;;;;;;;;;;;23.30;52.00;;;;;;5075652;28;20388;-56
2023/09/14 00:29:09;;;;;;;;;;;23.30;51.90;;;;;;5075678;28;19919;-56
2023/09/14 00:31:38;;;;;;;;;;;23.30;51.90;;;;;;5075688;28;19943;-57
2023/09/14 00:34:04;;;;;;;;;;;23.30;51.90;;;;;;5075726;28;20007;-56
2023/09/14 00:36:30;;;;;;;;;;;23.20;51.90;;;;;;5075487;28;19962;-56
2023/09/14 00:38:55;;;;;;;;;;;23.20;51.90;;;;;;5075507;28;19954;-55
2023/09/14 00:41:21;;;;;;;;;;;23.20;51.90;;;;;;5075548;28;20284;-56
2023/09/14 00:43:46;;;;;;;;;;;23.20;52.10;;;;;;5075502;28;19936;-56
2023/09/14 00:46:12;;;;;;;;;;;23.10;52.00;;;;;;5074288;28;19912;-56
2023/09/14 00:48:37;;;;;;;;;;;23.10;52.00;;;;;;5075223;28;20357;-56
2023/09/14 00:51:03;;;;;;;;;;;23.10;52.10;;;;;;5075189;28;19916;-55
2023/09/14 00:53:28;;;;;;;;;;;23.20;52.00;;;;;;5075318;28;19909;-56
2023/09/14 00:55:54;;;;;;;;;;;23.10;51.90;;;;;;5073888;28;19958;-56
2023/09/14 00:58:20;;;;;;;;;;;23.10;51.90;;;;;;5075278;28;19944;-56
2023/09/14 01:00:46;;;;;;;;;;;23.20;51.90;;;;;;5075154;28;19909;-56
2023/09/14 01:03:14;;;;;;;;;;;23.10;51.90;;;;;;5075017;28;19932;-56
2023/09/14 01:05:40;;;;;;;;;;;23.10;51.90;;;;;;5075133;28;19957;-56
2023/09/14 01:08:05;;;;;;;;;;;23.10;51.90;;;;;;5074954;28;20287;-56
2023/09/14 01:10:31;;;;;;;;;;;23.10;51.90;;;;;;5073741;28;19909;-56
2023/09/14 01:12:57;;;;;;;;;;;23.10;51.90;;;;;;5074926;28;19909;-56
2023/09/14 01:15:29;;;;;;;;;;;23.10;51.90;;;;;;5075116;28;19908;-56
2023/09/14 01:17:58;;;;;;;;;;;23.10;51.80;;;;;;5073636;28;20368;-56
2023/09/14 01:20:42;;;;;;;;;;;23.10;51.80;;;;;;5074959;28;19915;-56
2023/09/14 01:23:27;;;;;;;;;;;23.10;51.90;;;;;;5073528;28;19908;-56
2023/09/14 01:25:52;;;;;;;;;;;23.10;52.00;;;;;;5073294;28;20001;-56
2023/09/14 01:28:18;;;;;;;;;;;23.10;51.90;;;;;;5056671;28;20344;-56
2023/09/14 01:30:43;;;;;;;;;;;23.10;52.00;;;;;;5074601;28;19912;-56
2023/09/14 01:33:09;;;;;;;;;;;23.00;51.90;;;;;;5074400;28;19913;-55
2023/09/14 01:35:40;;;;;;;;;;;23.00;51.90;;;;;;5074516;28;19908;-56
2023/09/14 01:38:06;;;;;;;;;;;23.00;52.00;;;;;;5074468;28;19916;-56
2023/09/14 01:40:32;;;;;;;;;;;23.00;51.90;;;;;;5074390;28;19909;-56
2023/09/14 01:42:57;;;;;;;;;;;23.00;51.80;;;;;;5073036;28;20015;-55
2023/09/14 01:45:22;;;;;;;;;;;22.90;51.90;;;;;;5074259;28;19953;-56
2023/09/14 01:47:52;;;;;;;;;;;23.00;51.90;;;;;;5074095;28;19950;-55
2023/09/14 01:50:17;;;;;;;;;;;23.00;52.00;;;;;;5074237;28;19931;-55
2023/09/14 01:52:43;;;;;;;;;;;22.90;51.90;;;;;;5073897;28;19920;-55
2023/09/14 01:55:08;;;;;;;;;;;22.90;52.10;;;;;;5073946;28;19912;-56
2023/09/14 01:57:34;;;;;;;;;;;22.90;51.90;;;;;;5073882;28;19915;-56
2023/09/14 01:59:59;;;;;;;;;;;22.90;51.80;;;;;;5073983;28;19912;-55
2023/09/14 02:02:25;;;;;;;;;;;23.00;51.90;;;;;;5073948;28;20002;-56
2023/09/14 02:04:50;;;;;;;;;;;23.00;51.90;;;;;;5073894;28;20018;-56
2023/09/14 02:07:16;;;;;;;;;;;23.00;51.80;;;;;;5073689;28;19912;-55
2023/09/14 02:09:41;;;;;;;;;;;22.90;51.80;;;;;;5073793;28;19909;-55
2023/09/14 02:12:07;;;;;;;;;;;23.00;51.90;;;;;;5073638;28;19913;-56
2023/09/14 02:14:32;;;;;;;;;;;22.90;51.90;;;;;;5073602;28;19908;-55
2023/09/14 02:16:58;;;;;;;;;;;22.90;52.00;;;;;;5072289;28;20279;-55
2023/09/14 02:19:23;;;;;;;;;;;22.80;52.00;;;;;;5073622;28;20333;-56
2023/09/14 02:21:48;;;;;;;;;;;22.90;52.00;;;;;;5073481;28;19935;-56
2023/09/14 02:24:14;;;;;;;;;;;22.90;51.90;;;;;;5073576;28;19966;-56
2023/09/14 02:26:39;;;;;;;;;;;22.90;51.90;;;;;;5073453;28;19913;-55
2023/09/14 02:29:05;;;;;;;;;;;22.80;51.90;;;;;;5073308;28;19913;-55
2023/09/14 02:31:31;;;;;;;;;;;22.80;51.80;;;;;;5073527;28;19916;-56
2023/09/14 02:33:57;;;;;;;;;;;22.80;51.90;;;;;;5073336;28;19999;-56
2023/09/14 02:36:25;;;;;;;;;;;22.70;51.90;;;;;;5073309;28;19993;-56
2023/09/14 02:38:50;;;;;;;;;;;22.70;51.80;;;;;;5073262;28;19991;-56
2023/09/14 02:41:16;;;;;;;;;;;22.70;51.90;;;;;;5073233;28;19943;-55
2023/09/14 02:43:42;;;;;;;;;;;22.80;51.80;;;;;;5072010;28;19908;-56
2023/09/14 02:46:08;;;;;;;;;;;22.70;51.80;;;;;;5073267;28;19908;-55
2023/09/14 02:48:33;;;;;;;;;;;22.80;51.70;;;;;;5073062;28;19919;-55
2023/09/14 02:50:58;;;;;;;;;;;22.70;51.70;;;;;;5072966;28;20437;-55
2023/09/14 02:53:24;;;;;;;;;;;22.70;51.70;;;;;;5073151;28;19910;-55
2023/09/14 02:55:49;;;;;;;;;;;22.70;51.70;;;;;;5072967;28;19912;-56
2023/09/14 02:58:15;;;;;;;;;;;22.70;51.70;;;;;;5071650;28;19908;-56
2023/09/14 03:00:40;;;;;;;;;;;22.70;51.70;;;;;;5073000;28;20393;-56
2023/09/14 03:03:07;;;;;;;;;;;22.70;51.60;;;;;;5072991;28;19908;-56
2023/09/14 03:05:32;;;;;;;;;;;22.80;51.70;;;;;;5072929;28;19914;-55
2023/09/14 03:07:58;;;;;;;;;;;22.70;51.60;;;;;;5072874;28;20003;-55
2023/09/14 03:10:23;;;;;;;;;;;22.70;51.70;;;;;;5072283;28;20356;-55
2023/09/14 03:12:49;;;;;;;;;;;22.70;51.50;;;;;;5072932;28;19912;-55
2023/09/14 03:15:14;;;;;;;;;;;22.70;51.50;;;;;;5072782;28;19908;-55
2023/09/14 03:17:40;;;;;;;;;;;22.80;51.60;;;;;;5054732;28;19916;-56
2023/09/14 03:20:10;;;;;;;;;;;22.80;51.60;;;;;;5072663;28;19959;-56
2023/09/14 03:22:36;;;;;;;;;;;22.70;52.20;;;;;;5073110;28;20269;-55
2023/09/14 03:25:01;;;;;;;;;;;22.70;51.50;;;;;;5072726;28;20110;-56
2023/09/14 03:27:27;;;;;;;;;;;22.70;52.20;;;;;;5072666;28;19916;-55
2023/09/14 03:29:52;;;;;;;;;;;22.70;51.40;;;;;;5072670;28;19962;-55
2023/09/14 03:32:18;;;;;;;;;;;22.70;51.40;;;;;;5072791;28;19916;-55
2023/09/14 03:34:43;;;;;;;;;;;22.70;51.70;;;;;;5072641;28;19912;-56
2023/09/14 03:37:09;;;;;;;;;;;22.70;51.70;;;;;;5072481;28;20343;-55
2023/09/14 03:39:34;;;;;;;;;;;22.70;51.70;;;;;;5072519;28;19999;-56
2023/09/14 03:42:00;;;;;;;;;;;22.70;51.60;;;;;;5072461;28;19913;-55
2023/09/14 03:44:25;;;;;;;;;;;22.70;51.60;;;;;;5072653;28;20440;-56
2023/09/14 03:46:51;;;;;;;;;;;22.70;51.60;;;;;;5072271;28;19931;-56
2023/09/14 03:49:16;;;;;;;;;;;22.70;51.50;;;;;;5072393;28;20007;-55
2023/09/14 03:51:42;;;;;;;;;;;22.70;51.60;;;;;;5072132;28;19924;-55
2023/09/14 03:54:08;;;;;;;;;;;22.70;51.60;;;;;;5072384;28;19908;-55
2023/09/14 03:56:34;;;;;;;;;;;22.60;51.60;;;;;;5072253;28;19915;-56
2023/09/14 03:58:59;;;;;;;;;;;22.60;52.20;;;;;;5072367;28;19913;-54
2023/09/14 04:01:25;;;;;;;;;;;22.60;51.60;;;;;;5072348;28;19959;-56
2023/09/14 04:03:50;;;;;;;;;;;22.70;51.60;;;;;;5072262;28;19908;-55
2023/09/14 04:06:16;;;;;;;;;;;22.60;51.50;;;;;;5072634;28;19909;-55
2023/09/14 04:08:41;;;;;;;;;;;22.60;51.50;;;;;;5072141;28;19935;-55
2023/09/14 04:11:07;;;;;;;;;;;22.60;51.50;;;;;;5054309;28;19908;-54
2023/09/14 04:13:33;;;;;;;;;;;22.60;52.20;;;;;;5072125;28;20356;-55
2023/09/14 04:15:59;;;;;;;;;;;22.60;51.40;;;;;;5072309;28;19908;-55
2023/09/14 04:18:24;;;;;;;;;;;22.60;51.50;;;;;;5072083;28;19912;-55
2023/09/14 04:20:50;;;;;;;;;;;22.60;51.40;;;;;;5073551;28;19908;-55
2023/09/14 04:23:15;;;;;;;;;;;22.60;51.50;;;;;;5075718;28;20420;-55
2023/09/14 04:25:47;;;;;;;;;;;22.60;51.40;;;;;;5074394;28;19913;-55
2023/09/14 04:28:16;;;;;;;;;;;22.60;51.40;;;;;;5075598;28;19974;-55
2023/09/14 04:30:44;;;;;;;;;;;22.60;51.50;;;;;;5076143;28;19958;-56
2023/09/14 04:33:10;;;;;;;;;;;22.50;51.60;;;;;;5075590;28;20410;-55
2023/09/14 04:35:36;;;;;;;;;;;22.50;51.50;;;;;;5075610;28;19940;-55
2023/09/14 04:38:01;;;;;;;;;;;22.50;51.50;;;;;;5075396;28;20292;-55
2023/09/14 04:40:27;;;;;;;;;;;22.50;51.40;;;;;;5075458;28;20418;-57
2023/09/14 04:42:52;;;;;;;;;;;22.50;51.30;;;;;;5075360;28;19915;-55
2023/09/14 04:45:18;;;;;;;;;;;22.50;51.50;;;;;;5075425;28;19916;-56
2023/09/14 04:47:43;;;;;;;;;;;22.50;51.50;;;;;;5075298;28;20372;-56
2023/09/14 04:50:09;;;;;;;;;;;22.50;51.50;;;;;;5075261;28;20284;-56
2023/09/14 04:52:34;;;;;;;;;;;22.50;51.40;;;;;;5075175;28;19965;-55
2023/09/14 04:55:00;;;;;;;;;;;22.50;51.50;;;;;;5075151;28;19919;-55
2023/09/14 04:57:25;;;;;;;;;;;22.50;51.50;;;;;;5075273;28;20382;-55
2023/09/14 04:59:50;;;;;;;;;;;22.50;51.40;;;;;;5075002;28;19909;-56
2023/09/14 05:02:16;;;;;;;;;;;22.50;51.50;;;;;;5075135;28;19948;-56
2023/09/14 05:04:41;;;;;;;;;;;22.50;51.50;;;;;;5075069;28;19908;-55
2023/09/14 05:07:07;;;;;;;;;;;22.50;51.40;;;;;;5074849;28;19909;-55
2023/09/14 05:09:32;;;;;;;;;;;22.50;51.40;;;;;;5074889;28;19966;-55
2023/09/14 05:11:57;;;;;;;;;;;22.50;51.30;;;;;;5074666;28;19915;-55
2023/09/14 05:14:23;;;;;;;;;;;22.50;51.40;;;;;;5074740;28;19908;-55
2023/09/14 05:16:49;;;;;;;;;;;22.50;51.40;;;;;;5074688;28;19909;-54
2023/09/14 05:19:14;;;;;;;;;;;22.50;51.40;;;;;;5074672;28;19916;-55
2023/09/14 05:21:40;;;;;;;;;;;22.40;51.50;;;;;;5074694;28;20341;-55
2023/09/14 05:24:05;;;;;;;;;;;22.40;51.50;;;;;;5074653;28;19908;-56
2023/09/14 05:26:31;;;;;;;;;;;22.40;51.40;;;;;;5074751;28;19909;-56
2023/09/14 05:28:56;;;;;;;;;;;22.40;51.40;;;;;;5074430;28;19920;-56
2023/09/14 05:31:21;;;;;;;;;;;22.40;51.30;;;;;;5074659;28;19919;-56
2023/09/14 05:33:47;;;;;;;;;;;22.50;51.50;;;;;;5073962;28;19908;-56
2023/09/14 05:36:12;;;;;;;;;;;22.50;51.50;;;;;;5073049;28;19932;-55
2023/09/14 05:38:38;;;;;;;;;;;22.40;51.40;;;;;;5074547;28;20280;-54
2023/09/14 05:41:03;;;;;;;;;;;22.40;51.50;;;;;;5074259;28;20003;-55
2023/09/14 05:43:29;;;;;;;;;;;22.40;51.30;;;;;;5074534;28;19908;-56
2023/09/14 05:45:54;;;;;;;;;;;22.40;52.10;;;;;;5074209;28;19909;-55
2023/09/14 05:48:20;;;;;;;;;;;22.40;51.40;;;;;;5074249;28;19916;-55
2023/09/14 05:50:45;;;;;;;;;;;22.40;51.50;;;;;;5073884;28;20000;-55
2023/09/14 05:53:11;;;;;;;;;;;22.40;51.40;;;;;;5074125;28;19912;-55
2023/09/14 05:55:36;;;;;;;;;;;22.40;51.50;;;;;;5074010;28;19912;-56
2023/09/14 05:58:02;;;;;;;;;;;22.40;51.60;;;;;;5073862;28;19947;-55
2023/09/14 06:00:27;;;;;;;;;;;22.40;51.40;;;;;;5074066;28;19916;-55
2023/09/14 06:02:53;;;;;;;;;;;22.40;51.40;;;;;;5073906;28;19908;-55
2023/09/14 06:05:18;;;;;;;;;;;22.40;51.40;;;;;;5073814;28;19908;-56
2023/09/14 06:07:44;;;;;;;;;;;22.40;51.40;;;;;;5073819;28;19913;-55
2023/09/14 06:10:09;;;;;;;;;;;22.40;51.30;;;;;;5073708;28;19912;-56
2023/09/14 06:12:35;;;;;;;;;;;22.30;51.30;;;;;;5073798;28;19908;-56
2023/09/14 06:15:00;;;;;;;;;;;22.30;51.40;;;;;;5073528;28;19966;-56
2023/09/14 06:17:26;;;;;;;;;;;22.30;51.40;;;;;;5073623;28;19908;-56
2023/09/14 06:19:51;;;;;;;;;;;22.30;51.40;;;;;;5073572;28;19915;-56
2023/09/14 06:22:17;;;;;;;;;;;22.30;51.60;;;;;;5073753;28;19909;-56
2023/09/14 06:24:42;;;;;;;;;;;22.30;51.40;;;;;;5073447;28;19908;-56
2023/09/14 06:27:08;;;;;;;;;;;22.30;51.40;;;;;;5073183;28;20012;-55
2023/09/14 06:29:33;;;;;;;;;;;22.30;51.50;;;;;;5073338;28;19913;-56
2023/09/14 06:31:58;;;;;;;;;;;22.30;51.50;;;;;;5073566;28;19908;-55
2023/09/14 06:34:24;;;;;;;;;;;22.20;51.50;;;;;;5073430;28;19931;-55
2023/09/14 06:36:49;;;;;;;;;;;22.20;51.40;;;;;;5073185;28;20014;-55
2023/09/14 06:39:15;;;;;;;;;;;22.20;51.40;;;;;;5073150;28;19915;-55
2023/09/14 06:41:40;;;;;;;;;;;22.30;51.50;;;;;;5072076;28;19913;-55
2023/09/14 06:44:06;;;;;;;;;;;22.30;51.40;;;;;;5072387;28;20292;-56
2023/09/14 06:46:31;;;;;;;;;;;22.30;51.30;;;;;;5073051;28;20276;-55
2023/09/14 06:48:57;;;;;;;;;;;22.30;51.20;;;;;;5072878;28;19919;-55
2023/09/14 06:51:22;;;;;;;;;;;22.30;51.30;;;;;;5072927;28;19924;-56
2023/09/14 06:53:47;;;;;;;;;;;22.20;51.20;;;;;;5073032;28;19908;-55
2023/09/14 06:56:15;;;;;;;;;;;22.20;51.20;;;;;;5072899;28;19912;-56
2023/09/14 06:58:40;;;;;;;;;;;22.20;51.20;;;;;;5073037;28;19913;-55
2023/09/14 07:01:06;;;;;;;;;;;22.20;51.30;;;;;;5072994;28;19915;-55
2023/09/14 07:03:32;;;;;;;;;;;22.20;51.30;;;;;;5073076;28;20383;-55
2023/09/14 07:05:58;;;;;;;;;;;22.20;51.40;;;;;;5072898;28;19939;-55
2023/09/14 07:08:23;;;;;;;;;;;22.20;51.30;;;;;;5072781;28;19912;-56
2023/09/14 07:10:49;;;;;;;;;;;22.20;51.20;;;;;;5071647;28;19912;-55
2023/09/14 07:13:14;;;;;;;;;;;22.20;51.40;;;;;;5072694;28;19908;-55
2023/09/14 07:15:40;;;;;;;;;;;22.20;51.40;;;;;;5072815;28;20395;-55
2023/09/14 07:18:05;;;;;;;;;;;22.20;51.40;;;;;;5072713;28;20425;-55
2023/09/14 07:20:31;;;;;;;;;;;22.20;51.30;;;;;;5072815;28;19916;-55
2023/09/14 07:22:57;;;;;;;;;;;22.20;51.30;;;;;;5072585;28;19962;-55
2023/09/14 07:25:23;;;;;;;;;;;22.20;51.40;;;;;;5072680;28;19909;-55
2023/09/14 07:27:48;;;;;;;;;;;22.20;51.30;;;;;;5072663;28;19913;-55
2023/09/14 07:30:14;;;;;;;;;;;22.20;51.30;;;;;;5072627;28;19912;-55
2023/09/14 07:32:40;;;;;;;;;;;22.20;51.30;;;;;;5072564;28;19924;-54
2023/09/14 07:35:09;;;;;;;;;;;22.20;51.40;;;;;;5072128;28;19915;-55
2023/09/14 07:37:34;;;;;;;;;;;22.20;51.30;;;;;;5071214;28;19915;-54
2023/09/14 07:40:00;;;;;;;;;;;22.20;51.40;;;;;;5072664;28;20456;-55
2023/09/14 07:42:25;;;;;;;;;;;22.20;51.30;;;;;;5072632;28;19954;-55
2023/09/14 07:44:51;;;;;;;;;;;22.20;51.20;;;;;;5072558;28;19908;-55
2023/09/14 07:47:16;;;;;;;;;;;22.30;51.20;;;;;;5072444;28;19909;-55
2023/09/14 07:49:45;;;;;;;;;;;22.20;51.20;;;;;;5072383;28;20003;-55
2023/09/14 07:52:10;;;;;;;;;;;22.20;51.20;;;;;;5072299;28;19928;-54
2023/09/14 07:54:36;;;;;;;;;;;22.30;51.20;;;;;;5072469;28;20324;-55
2023/09/14 07:57:02;;;;;;;;;;;22.30;51.30;;;;;;5075865;28;19909;-55
2023/09/14 07:59:27;;;;;;;;;;;22.30;51.30;;;;;;5076190;28;19931;-55
2023/09/14 08:01:53;;;;;;;;;;;22.30;51.40;;;;;;5076159;28;19908;-55
2023/09/14 08:04:18;;;;;;;;;;;22.30;51.20;;;;;;5076147;28;19916;-55
2023/09/14 08:06:44;;;;;;;;;;;22.30;51.30;;;;;;5076135;28;19908;-55
2023/09/14 08:09:09;;;;;;;;;;;22.30;51.40;;;;;;5075974;28;19916;-55
2023/09/14 08:11:36;;;;;;;;;;;22.30;51.30;;;;;;5075902;28;20361;-55
2023/09/14 08:14:02;;;;;;;;;;;22.20;51.30;;;;;;5075733;28;19966;-55
2023/09/14 08:16:31;;;;;;;;;;;22.20;51.40;;;;;;5076023;28;20237;-55
2023/09/14 08:18:56;;;;;;;;;;;22.20;51.30;;;;;;5075851;28;19999;-55
2023/09/14 08:21:22;;;;;;;;;;;22.20;51.20;;;;;;5075626;28;19991;-55
2023/09/14 08:23:47;;;;;;;;;;;22.20;51.00;;;;;;5075792;28;19962;-55
2023/09/14 08:26:13;;;;;;;;;;;22.20;51.20;;;;;;5075494;28;19913;-55
2023/09/14 08:28:38;;;;;;;;;;;22.20;51.10;;;;;;5075541;28;19958;-55
2023/09/14 08:31:04;;;;;;;;;;;22.20;51.10;;;;;;5075536;28;19912;-56
2023/09/14 08:33:29;;;;;;;;;;;22.20;51.20;;;;;;5075519;28;20280;-56
2023/09/14 08:35:55;;;;;;;;;;;22.20;51.20;;;;;;5075712;28;19908;-55
2023/09/14 08:38:21;;;;;;;;;;;22.20;51.30;;;;;;5075556;28;19912;-55
2023/09/14 08:40:46;;;;;;;;;;;22.20;51.20;;;;;;5075495;28;19908;-55
2023/09/14 08:43:12;;;;;;;;;;;22.20;51.30;;;;;;5073981;28;19976;-55
2023/09/14 08:45:38;;;;;;;;;;;22.20;51.10;;;;;;5075284;28;20364;-55
2023/09/14 08:48:04;;;;;;;;;;;22.20;51.20;;;;;;5075232;28;19920;-56
2023/09/14 08:50:30;;;;;;;;;;;22.20;51.20;;;;;;5074000;28;20407;-56
2023/09/14 08:52:55;;;;;;;;;;;22.20;51.20;;;;;;5075050;28;20007;-55
2023/09/14 08:55:21;;;;;;;;;;;22.20;51.20;;;;;;5075244;28;19955;-55
2023/09/14 08:57:47;;;;;;;;;;;22.20;51.10;;;;;;5075602;28;19908;-56
2023/09/14 09:00:15;;;;;;;;;;;22.20;51.10;;;;;;5074888;28;19966;-55
2023/09/14 09:02:44;;;;;;;;;;;22.30;51.00;;;;;;5073746;28;19958;-55
2023/09/14 09:05:11;;;;;;;;;;;22.30;50.90;;;;;;5075237;28;20392;-55
2023/09/14 09:07:38;;;;;;;;;;;22.30;51.00;;;;;;5073759;28;20299;-56
2023/09/14 09:10:03;;;;;;;;;;;22.30;50.90;;;;;;5074808;28;19934;-55
2023/09/14 09:12:29;;;;;;;;;;;22.30;50.80;;;;;;5074960;28;19938;-55
2023/09/14 09:14:54;;;;;;;;;;;22.40;50.90;;;;;;5075012;28;20364;-55
2023/09/14 09:17:20;;;;;;;;;;;22.40;50.80;;;;;;5074835;28;20285;-56
2023/09/14 09:19:46;;;;;;;;;;;22.40;50.70;;;;;;5074704;28;19931;-55
2023/09/14 09:22:13;;;;;;;;;;;22.40;51.00;;;;;;5074705;28;19919;-55
2023/09/14 09:24:38;;;;;;;;;;;22.40;50.60;;;;;;5074679;28;19916;-56
2023/09/14 09:27:11;;;;;;;;;;;22.40;50.70;;;;;;5074561;28;20284;-55
2023/09/14 09:29:36;;;;;;;;;;;22.30;50.70;;;;;;5073421;28;19909;-56
2023/09/14 09:32:02;;;;;;;;;;;22.40;50.50;;;;;;5074456;28;20304;-56
2023/09/14 09:34:29;;;;;;;;;;;22.40;50.60;;;;;;5074746;28;20267;-56
2023/09/14 09:36:55;;;;;;;;;;;22.40;50.70;;;;;;5074470;28;19915;-55
2023/09/14 09:39:20;;;;;;;;;;;22.30;50.70;;;;;;5074280;28;19912;-56
2023/09/14 09:41:46;;;;;;;;;;;22.40;50.40;;;;;;5074331;28;19909;-56
2023/09/14 09:44:13;;;;;;;;;;;22.30;50.30;;;;;;5074185;28;19912;-56
2023/09/14 09:46:39;;;;;;;;;;;22.40;50.20;;;;;;5072856;28;20353;-55
2023/09/14 09:49:15;;;;;;;;;;;22.50;50.00;;;;;;5073987;28;19913;-56
2023/09/14 09:51:41;;;;;;;;;;;22.50;49.80;;;;;;5072643;28;19924;-56
2023/09/14 09:54:06;;;;;;;;;;;22.50;50.00;;;;;;5072803;28;19908;-56
2023/09/14 09:56:32;;;;;;;;;;;22.50;49.80;;;;;;5072710;28;19987;-55
2023/09/14 09:59:00;;;;;;;;;;;22.60;49.70;;;;;;5073940;28;20043;-56
2023/09/14 10:01:26;;;;;;;;;;;22.60;49.60;;;;;;5074163;28;19909;-56
2023/09/14 10:03:54;;;;;;;;;;;22.60;49.80;;;;;;5073737;28;20388;-56
2023/09/14 10:06:19;;;;;;;;;;;22.70;49.90;;;;;;5073803;28;20339;-55
2023/09/14 10:08:52;;;;;;;;;;;22.70;49.80;;;;;;5073470;28;19912;-56
2023/09/14 10:11:17;;;;;;;;;;;22.70;49.60;;;;;;5073655;28;19915;-55
2023/09/14 10:13:43;;;;;;;;;;;22.80;49.40;;;;;;5072622;28;19908;-56
2023/09/14 10:16:08;;;;;;;;;;;22.80;49.40;;;;;;5072294;28;19967;-56
2023/09/14 10:18:34;;;;;;;;;;;22.80;49.60;;;;;;5072183;28;19916;-55
2023/09/14 10:20:59;;;;;;;;;;;22.90;49.80;;;;;;5072402;28;19908;-56
2023/09/14 10:23:25;;;;;;;;;;;22.80;49.70;;;;;;5073479;28;19961;-55
2023/09/14 10:25:50;;;;;;;;;;;22.80;49.70;;;;;;5073364;28;20005;-56
2023/09/14 10:28:16;;;;;;;;;;;22.80;49.60;;;;;;5073320;28;19919;-55
2023/09/14 10:30:45;;;;;;;;;;;22.90;49.20;;;;;;5073720;28;19916;-56
2023/09/14 10:33:10;;;;;;;;;;;22.90;50.00;;;;;;5073411;28;19920;-55
2023/09/14 10:35:38;;;;;;;;;;;22.80;49.50;;;;;;5073363;28;19909;-56
2023/09/14 10:38:03;;;;;;;;;;;22.90;49.40;;;;;;5073377;28;20275;-55
2023/09/14 10:40:29;;;;;;;;;;;22.80;49.40;;;;;;5073232;28;19995;-55
2023/09/14 10:42:55;;;;;;;;;;;22.70;49.40;;;;;;5073229;28;19915;-55
2023/09/14 10:45:20;;;;;;;;;;;22.70;49.70;;;;;;5073229;28;20364;-56
2023/09/14 10:47:47;;;;;;;;;;;22.70;49.50;;;;;;5073101;28;20480;-54
2023/09/14 10:50:13;;;;;;;;;;;22.80;49.40;;;;;;5073057;28;19912;-55
2023/09/14 10:52:40;;;;;;;;;;;22.70;49.00;;;;;;5072969;28;20007;-55
2023/09/14 10:55:06;;;;;;;;;;;22.70;49.60;;;;;;5072975;28;19943;-56
2023/09/14 10:57:32;;;;;;;;;;;22.80;49.40;;;;;;5073026;28;19909;-55
2023/09/14 10:59:58;;;;;;;;;;;22.90;49.50;;;;;;5072968;28;19919;-55
2023/09/14 11:02:39;;;;;;;;;;;22.90;48.90;;;;;;5072801;28;20364;-56
2023/09/14 11:05:13;;;;;;;;;;;22.80;48.90;;;;;;5073096;28;19909;-56
2023/09/14 11:07:44;;;;;;;;;;;22.80;49.10;;;;;;5072804;28;19912;-56
2023/09/14 11:10:10;;;;;;;;;;;22.80;48.70;;;;;;5072810;28;20003;-56
2023/09/14 11:12:35;;;;;;;;;;;22.90;49.10;;;;;;5071590;28;20043;-55
2023/09/14 11:15:14;;;;;;;;;;;22.80;48.80;;;;;;5072694;28;19912;-56
2023/09/14 11:17:43;;;;;;;;;;;22.80;48.90;;;;;;5072821;28;19908;-56
2023/09/14 11:20:31;;;;;;;;;;;22.80;49.20;;;;;;5072862;28;19909;-55
2023/09/14 11:23:00;;;;;;;;;;;22.80;49.10;;;;;;5064447;28;19908;-55
2023/09/14 11:25:29;;;;;;;;;;;23.00;48.70;;;;;;5072730;28;19908;-56
2023/09/14 11:27:55;;;;;;;;;;;23.00;49.10;;;;;;5072557;28;20292;-56
2023/09/14 11:30:20;;;;;;;;;;;23.10;48.90;;;;;;5073457;28;19913;-55
2023/09/14 11:32:46;;;;;;;;;;;23.10;48.60;;;;;;5077061;28;19954;-56
2023/09/14 11:35:12;;;;;;;;;;;23.10;48.50;;;;;;5075472;28;19915;-55
2023/09/14 11:37:39;;;;;;;;;;;23.10;48.40;;;;;;5076509;28;19908;-56
2023/09/14 11:40:06;;;;;;;;;;;23.10;48.50;;;;;;5075413;28;19915;-56
2023/09/14 11:42:50;;;;;;;;;;;23.00;49.10;;;;;;5076490;28;19919;-56
2023/09/14 11:45:15;;;;;;;;;;;23.00;48.80;;;;;;5076537;28;19909;-56
2023/09/14 11:47:40;;;;;;;;;;;23.00;48.70;;;;;;5076339;28;19939;-55
2023/09/14 11:50:06;;;;;;;;;;;23.00;49.10;;;;;;5076255;28;19917;-55
2023/09/14 11:52:31;;;;;;;;;;;23.10;49.00;;;;;;5074908;28;20007;-56
2023/09/14 11:54:57;;;;;;;;;;;23.10;48.60;;;;;;5074943;28;19953;-55
2023/09/14 11:57:27;;;;;;;;;;;23.00;49.00;;;;;;5076390;28;20042;-56
2023/09/14 11:59:52;;;;;;;;;;;23.00;48.70;;;;;;5076280;28;20372;-55
2023/09/14 12:02:18;;;;;;;;;;;23.00;48.80;;;;;;5076276;28;19915;-55
2023/09/14 12:04:44;;;;;;;;;;;23.00;48.70;;;;;;5074991;28;20383;-55
2023/09/14 12:07:10;;;;;;;;;;;23.00;48.90;;;;;;5076060;28;19912;-56
2023/09/14 12:09:37;;;;;;;;;;;23.00;49.00;;;;;;5076081;28;19909;-56
2023/09/14 12:12:03;;;;;;;;;;;23.00;49.00;;;;;;5076003;28;19951;-56
2023/09/14 12:14:38;;;;;;;;;;;23.00;48.90;;;;;;5076004;28;20018;-56
2023/09/14 12:17:20;;;;;;;;;;;23.00;49.20;;;;;;5075758;28;20276;-57
2023/09/14 12:19:46;;;;;;;;;;;23.00;49.60;;;;;;5075965;28;19909;-56
2023/09/14 12:22:11;;;;;;;;;;;23.00;48.60;;;;;;5075660;28;19995;-55
2023/09/14 12:24:37;;;;;;;;;;;22.80;48.60;;;;;;5074463;28;19909;-55
2023/09/14 12:27:02;;;;;;;;;;;22.80;48.70;;;;;;5075753;28;19915;-56
2023/09/14 12:29:28;;;;;;;;;;;22.80;48.60;;;;;;5075846;28;19931;-56
2023/09/14 12:31:53;;;;;;;;;;;22.90;48.70;;;;;;5075784;28;19916;-56
2023/09/14 12:34:18;;;;;;;;;;;23.00;48.90;;;;;;5075812;28;19955;-55
2023/09/14 12:36:44;;;;;;;;;;;23.10;49.20;;;;;;5075566;28;19954;-56
2023/09/14 12:39:12;;;;;;;;;;;23.10;48.30;;;;;;5075514;28;19916;-56
2023/09/14 12:41:39;;;;;;;;;;;23.30;48.30;;;;;;5073489;28;19958;-56
2023/09/14 12:44:04;;;;;;;;;;;23.30;48.40;;;;;;5075221;28;20299;-56
2023/09/14 12:46:31;;;;;;;;;;;23.30;48.50;;;;;;5075809;28;19908;-56
2023/09/14 12:49:00;;;;;;;;;;;23.40;47.30;;;;;;5075288;28;19913;-55
2023/09/14 12:51:25;;;;;;;;;;;23.40;47.70;;;;;;5075280;28;20003;-56
2023/09/14 12:53:51;;;;;;;;;;;23.40;48.10;;;;;;5075340;28;20368;-55
2023/09/14 12:56:16;;;;;;;;;;;23.50;47.40;;;;;;5075259;28;19987;-56
2023/09/14 12:58:42;;;;;;;;;;;23.40;47.30;;;;;;5075178;28;19915;-56
2023/09/14 13:01:08;;;;;;;;;;;23.40;47.50;;;;;;5075051;28;19916;-56
2023/09/14 13:03:34;;;;;;;;;;;23.40;47.70;;;;;;5075093;28;19938;-56
2023/09/14 13:05:59;;;;;;;;;;;23.40;48.00;;;;;;5074974;28;19909;-56
2023/09/14 13:08:25;;;;;;;;;;;23.30;47.30;;;;;;5075092;28;19962;-56
2023/09/14 13:10:50;;;;;;;;;;;23.40;47.90;;;;;;5073692;28;19912;-55
2023/09/14 13:13:16;;;;;;;;;;;23.40;48.40;;;;;;5074899;28;19958;-56
2023/09/14 13:15:43;;;;;;;;;;;23.40;48.10;;;;;;5075049;28;19908;-56
2023/09/14 13:18:09;;;;;;;;;;;23.40;48.10;;;;;;5074776;28;19908;-56
2023/09/14 13:20:35;;;;;;;;;;;23.40;47.80;;;;;;5074941;28;19974;-56
2023/09/14 13:23:01;;;;;;;;;;;23.30;47.90;;;;;;5074737;28;19920;-56
2023/09/14 13:25:26;;;;;;;;;;;23.40;47.30;;;;;;5074739;28;19908;-56
2023/09/14 13:27:52;;;;;;;;;;;23.50;46.70;;;;;;5074654;28;20257;-56
2023/09/14 13:30:18;;;;;;;;;;;23.50;46.70;;;;;;5074524;28;19908;-57
2023/09/14 13:32:46;;;;;;;;;;;23.60;46.80;;;;;;5074762;28;19916;-56
2023/09/14 13:35:12;;;;;;;;;;;23.50;46.80;;;;;;5074505;28;19991;-56
2023/09/14 13:37:38;;;;;;;;;;;23.60;46.80;;;;;;5074457;28;19944;-56
2023/09/14 13:42:55;;;;;;;;;;;23.70;47.30;;;;;;5081176;28;19916;-56
2023/09/14 13:45:21;;;;;;;;;;;23.70;47.40;;;;;;5074696;28;19966;-56
2023/09/14 13:47:48;;;;;;;;;;;23.70;47.40;;;;;;5072928;28;19916;-56
2023/09/14 13:50:13;;;;;;;;;;;23.60;47.30;;;;;;5074564;28;19962;-55
2023/09/14 13:52:39;;;;;;;;;;;23.50;47.30;;;;;;5073953;28;20356;-56
2023/09/14 13:55:06;;;;;;;;;;;23.40;47.50;;;;;;5073861;28;19909;-56
2023/09/14 13:57:31;;;;;;;;;;;23.40;47.20;;;;;;5073834;28;19913;-56
2023/09/14 13:59:57;;;;;;;;;;;23.40;47.70;;;;;;5073922;28;19915;-56
2023/09/14 14:02:22;;;;;;;;;;;23.40;47.70;;;;;;5073915;28;19909;-56
2023/09/14 14:04:48;;;;;;;;;;;23.40;48.10;;;;;;5073897;28;20388;-56
2023/09/14 14:07:13;;;;;;;;;;;23.30;48.00;;;;;;5072594;28;20009;-56
2023/09/14 14:09:39;;;;;;;;;;;23.30;47.90;;;;;;5073765;28;19915;-55
2023/09/14 14:12:05;;;;;;;;;;;23.30;47.90;;;;;;5073869;28;19916;-56